• Join FlightAware (Why Join?)
  • Login
  • US Flag 
08:55AM EDT


 

Airport Tracker/Info


-or-


 

Live Flight TrackerFlight Track Log ✈ CTL337 ✈ 07-Jun-2013 ✈ KBKL - KOSU

Flight Track Log - Related Links

Times and Time Zones

All times are in EDT time to prevent confusion due to time zone crossing. See the CTL337 flight status page for this flight to view local times or setup timezone preferences in your user account.

Time Position Orientation Groundspeed Altitude Reporting Facility
EDT Latitude Longitude Course Direction KTS MPH feet Rate Location/Type
10:13PM 41.5253 -81.6731 28° Northeast 104 120 1,200  Level Cleveland Center
10:14PM 41.5483 -81.6569 28° Northeast 102 117 2,600 1,200 Climbing Cleveland Center
10:16PM 41.5156 -81.5981 127° Southeast 135 155 4,800 1,080 Climbing Cleveland Center
10:17PM 41.4825 -81.5725 150° Southeast 126 145 6,000 420 Climbing Cleveland Center
10:18PM 41.4469 -81.5886 199° South 172 198 5,800  Descending Cleveland Center
10:19PM 41.4111 -81.6297 221° Southwest 169 194 6,000 60 Climbing Cleveland Center
10:20PM 41.3772 -81.6733 224° Southwest 166 191 6,000 60 Level Cleveland Center
10:21PM 41.3417 -81.7086 217° Southwest 169 194 6,200  Climbing Cleveland Center
10:22PM 41.3036 -81.7467 217° Southwest 169 194 6,000 -180 Descending Cleveland Center
10:23PM 41.2636 -81.7875 218° Southwest 174 200 5,900  Descending Cleveland Center
10:24PM 41.2236 -81.8308 219° Southwest 168 193 6,000  Climbing Cleveland Center
10:25PM 41.1939 -81.8636 220° Southwest 173 199 6,000 -120 Level Cleveland Center
10:26PM 41.1603 -81.9042 222° Southwest 177 204 5,800  Descending Cleveland Center
10:27PM 41.1158 -81.9583 223° Southwest 169 194 6,000  Climbing Cleveland Center
10:29PM 41.0808 -82.0130 230° Southwest  Level FlightAware Approximate
10:30PM 41.0203 -82.0633 230° Southwest 169 194 6,000  Level Indianapolis Center
10:31PM 40.9783 -82.1119 221° Southwest 171 197 6,000  Level Indianapolis Center
10:32PM 40.9417 -82.1503 218° Southwest 168 193 6,000  Level Indianapolis Center
10:33PM 40.9064 -82.1928 222° Southwest 169 194 6,000 -60 Level Indianapolis Center
10:34PM 40.8703 -82.2319 219° Southwest 168 193 5,900  Descending Indianapolis Center
10:35PM 40.8344 -82.2728 221° Southwest 168 193 6,000  Climbing Indianapolis Center
10:36PM 40.7994 -82.3144 222° Southwest 170 196 6,000  Level Indianapolis Center
10:37PM 40.7606 -82.3494 214° Southwest 168 193 6,000 -60 Level Indianapolis Center
10:38PM 40.7250 -82.3906 221° Southwest 168 193 5,900  Descending Indianapolis Center
10:39PM 40.6908 -82.4322 223° Southwest 167 192 6,000  Climbing Indianapolis Center
10:40PM 40.6553 -82.4714 220° Southwest 166 191 6,000  Level Indianapolis Center
10:41PM 40.6197 -82.5125 221° Southwest 168 193 6,000  Level Indianapolis Center
10:42PM 40.5844 -82.5511 220° Southwest 166 191 6,000  Level Indianapolis Center
10:43PM 40.5483 -82.5897 219° Southwest 166 191 6,000  Level Indianapolis Center
10:44PM 40.5119 -82.6306 220° Southwest 169 194 6,000  Level Indianapolis Center
10:45PM 40.4756 -82.6717 221° Southwest 170 196 6,000 -240 Level Indianapolis Center
10:46PM 40.4497 -82.6986 218° Southwest 172 198 5,700 -540 Descending Indianapolis Center
10:46PM 40.4369 -82.7128 220° Southwest 176 203 5,500 -540 Descending Indianapolis Center
10:47PM 40.4069 -82.7458 220° Southwest 189 217 5,100 -540 Descending Indianapolis Center
10:47PM 40.3956 -82.7583 220° Southwest 189 217 5,000 -780 Descending Indianapolis Center
10:48PM 40.3597 -82.7953 218° Southwest 193 222 4,300 -720 Descending Indianapolis Center
10:48PM 40.3528 -82.8014 214° Southwest 191 220 4,300 -300 Level Indianapolis Center
10:49PM 40.3208 -82.8428 225° Southwest 188 216 4,000 -300 Descending Indianapolis Center
10:49PM 40.3158 -82.8467 211° Southwest 186 214 4,000  Level Indianapolis Center
10:50PM 40.2869 -82.8825 223° Southwest 170 196 4,000  Level Indianapolis Center
10:50PM 40.2806 -82.8897 221° Southwest 177 204 4,000  Level Indianapolis Center
10:51PM 40.2486 -82.9219 218° Southwest 171 197 4,000  Level Indianapolis Center
10:52PM 40.2425 -82.9289 221° Southwest 173 199 4,000  Level Indianapolis Center
10:52PM 40.2164 -82.9647 226° Southwest 168 193 4,000  Level Indianapolis Center
10:53PM 40.2050 -82.9814 228° Southwest 170 196 4,000 -240 Level Indianapolis Center
10:53PM 40.1825 -83.0017 215° Southwest 171 197 3,800 -840 Descending Indianapolis Center
10:54PM 40.1661 -83.0208 222° Southwest 171 197 3,200 -1,200 Descending Indianapolis Center
10:54PM 40.1336 -83.0450 210° Southwest 188 216 2,500 -1,200 Descending Indianapolis Center
10:55PM 40.1189 -83.0519 200° South 180 207 2,000 -540 Descending Indianapolis Center
10:55PM 40.1008 -83.0631 205° Southwest 165 190 2,100 -300 Climbing Indianapolis Center
10:56PM 40.1000 -83.0875 267° West 148 170 1,700 -660 Descending Indianapolis Center
10:56PM 40.0881 -83.0997 218° Southwest 106 122 1,400 -540 Descending Indianapolis Center
10:57PM 40.0772 -83.0986 176° South 118 136 1,200 -480 Descending Indianapolis Center
10:59PM 40.0667 -83.0667 201° Southwest  Level FlightAware Approximate